X  Fechar Metar - Info de Aeroporto     KSWO Stillwater Regional Airport
Temperatura
6°C Temperatura
0°C Ptº Orvalho
66% Humidade



Vento
17 MPH
27 KM/H
8 M/S
15 NÓS



340°
NNO
Condições Atuais

Muito Nublado Muito Nublado
Pressão 1010.82 (hPa) - 29.85 (inHg)
Visibilidade 10 (milha) - 16.1 (km)
Aeroporto
Código-Aeropoto KSWO

Localização: Stillwater Regional Airport
Distância: 4 (mi)

Metar:
KSWO 292143Z 34015G23KT 10SM BKN025 OVC030 06/00 A2985 RMK AO2 T00610000

Hora: 11-29-2022 3:43 pm CST